createdAt,value
2022-10-26T00:00:44.201Z,11.60
2022-10-26T00:03:11.073Z,11.60
2022-10-26T00:05:37.935Z,11.50
2022-10-26T00:08:04.976Z,11.50
2022-10-26T00:10:33.626Z,11.50
2022-10-26T00:13:00.704Z,11.50
2022-10-26T00:15:28.109Z,11.40
2022-10-26T00:17:54.997Z,11.50
2022-10-26T00:20:21.794Z,11.50
2022-10-26T00:22:48.634Z,11.60
2022-10-26T00:25:15.420Z,11.50
2022-10-26T00:27:42.408Z,11.60
2022-10-26T00:30:09.535Z,11.70
2022-10-26T00:32:36.488Z,11.70
2022-10-26T00:35:11.807Z,11.60
2022-10-26T00:37:53.979Z,11.60
2022-10-26T00:40:20.804Z,11.70
2022-10-26T00:42:47.965Z,11.80
2022-10-26T00:45:23.334Z,11.80
2022-10-26T00:47:55.934Z,11.80
2022-10-26T00:50:26.371Z,11.90
2022-10-26T00:52:53.692Z,11.80
2022-10-26T00:55:22.718Z,11.70
2022-10-26T00:57:50.209Z,11.60
2022-10-26T01:00:17.153Z,11.60
2022-10-26T01:02:46.087Z,11.70
2022-10-26T01:05:14.001Z,11.60
2022-10-26T01:07:41.902Z,11.50
2022-10-26T01:10:09.215Z,11.50
2022-10-26T01:12:36.361Z,11.60
2022-10-26T01:15:03.619Z,11.50
2022-10-26T01:17:39.624Z,11.50
2022-10-26T01:20:24.962Z,11.50
2022-10-26T01:23:01.334Z,11.50
2022-10-26T01:25:39.762Z,11.50
2022-10-26T01:28:12.691Z,11.60
2022-10-26T01:30:40.967Z,11.70
2022-10-26T01:33:44.344Z,11.70
2022-10-26T01:36:19.335Z,11.60
2022-10-26T01:38:52.334Z,11.60
2022-10-26T01:41:19.247Z,11.60
2022-10-26T01:43:50.591Z,11.70
2022-10-26T01:48:52.086Z,11.70
2022-10-26T01:51:19.945Z,11.70
2022-10-26T01:53:47.240Z,11.60
2022-10-26T01:56:19.307Z,11.60
2022-10-26T01:58:55.538Z,11.60
2022-10-26T02:01:22.515Z,11.50
2022-10-26T02:04:07.819Z,11.50
2022-10-26T02:06:49.944Z,11.60
2022-10-26T02:09:31.625Z,11.60
2022-10-26T02:11:58.605Z,11.70
2022-10-26T02:14:34.878Z,11.70
2022-10-26T02:17:08.866Z,11.90
2022-10-26T02:19:43.422Z,11.70
2022-10-26T02:22:21.901Z,11.70
2022-10-26T02:24:50.719Z,11.70
2022-10-26T02:27:20.766Z,11.70
2022-10-26T02:29:49.381Z,11.60
2022-10-26T02:32:17.234Z,11.60
2022-10-26T02:34:45.981Z,11.70
2022-10-26T02:37:13.825Z,11.80
2022-10-26T02:39:41.599Z,11.80
2022-10-26T02:42:09.480Z,11.90
2022-10-26T02:44:57.934Z,11.90
2022-10-26T02:47:26.411Z,11.80
2022-10-26T02:49:54.189Z,11.90
2022-10-26T02:52:35.082Z,11.90
2022-10-26T02:55:08.359Z,11.90
2022-10-26T02:57:42.028Z,11.90
2022-10-26T03:02:38.015Z,11.90
2022-10-26T03:05:07.896Z,11.90
2022-10-26T03:07:34.655Z,11.90
2022-10-26T03:10:01.549Z,11.90
2022-10-26T03:12:28.476Z,11.90
2022-10-26T03:14:55.336Z,12.10
2022-10-26T03:17:22.139Z,12.00
2022-10-26T03:19:48.939Z,12.20
2022-10-26T03:22:15.739Z,12.20
2022-10-26T03:24:42.587Z,12.10
2022-10-26T03:27:09.518Z,12.00
2022-10-26T03:29:36.401Z,12.10
2022-10-26T03:32:03.263Z,12.10
2022-10-26T03:34:30.071Z,12.30
2022-10-26T03:36:56.871Z,12.20
2022-10-26T03:39:23.813Z,12.40
2022-10-26T03:41:50.807Z,12.20
2022-10-26T03:44:17.705Z,12.20
2022-10-26T03:46:44.513Z,12.10
2022-10-26T03:49:11.527Z,12.10
2022-10-26T03:51:38.307Z,12.30
2022-10-26T03:54:05.539Z,12.20
2022-10-26T03:56:32.418Z,12.20
2022-10-26T03:58:59.334Z,12.20
2022-10-26T04:01:26.270Z,12.00
2022-10-26T04:03:53.150Z,11.90
2022-10-26T04:06:19.975Z,12.00
2022-10-26T04:08:46.795Z,12.10
2022-10-26T04:11:13.611Z,11.90
2022-10-26T04:13:40.459Z,12.00
2022-10-26T04:16:07.412Z,12.00
2022-10-26T04:18:34.268Z,12.20
2022-10-26T04:21:02.199Z,12.00
2022-10-26T04:23:29.249Z,12.00
2022-10-26T04:25:56.113Z,11.90
2022-10-26T04:28:23.036Z,11.90
2022-10-26T04:30:49.820Z,12.00
2022-10-26T04:33:16.772Z,12.00
2022-10-26T04:35:43.591Z,12.00
2022-10-26T04:38:10.590Z,12.00
2022-10-26T04:40:37.663Z,11.80
2022-10-26T04:43:04.552Z,11.70
2022-10-26T04:45:31.462Z,11.70
2022-10-26T04:48:01.326Z,11.60
2022-10-26T04:50:28.544Z,11.60
2022-10-26T04:52:55.679Z,11.50
2022-10-26T04:55:22.772Z,11.60
2022-10-26T04:57:49.847Z,11.80
2022-10-26T05:00:16.849Z,11.80
2022-10-26T05:02:43.724Z,11.90
2022-10-26T05:05:14.058Z,11.80
2022-10-26T05:07:42.231Z,11.80
2022-10-26T05:10:09.528Z,11.80
2022-10-26T05:12:36.574Z,11.70
2022-10-26T05:15:06.351Z,11.70
2022-10-26T05:17:35.346Z,11.60
2022-10-26T05:20:06.028Z,11.50
2022-10-26T05:22:32.997Z,11.60
2022-10-26T05:24:59.768Z,11.50
2022-10-26T05:27:26.658Z,11.60
2022-10-26T05:29:53.471Z,11.70
2022-10-26T05:32:20.543Z,11.70
2022-10-26T05:34:47.402Z,11.60
2022-10-26T05:37:14.208Z,11.70
2022-10-26T05:39:43.378Z,11.70
2022-10-26T05:42:10.173Z,11.70
2022-10-26T05:44:37.166Z,11.70
2022-10-26T05:47:04.082Z,11.70
2022-10-26T05:49:30.867Z,11.80
2022-10-26T05:51:57.702Z,11.80
2022-10-26T05:54:24.552Z,11.70
2022-10-26T05:56:51.560Z,11.70
2022-10-26T05:59:18.737Z,12.00
2022-10-26T06:02:12.947Z,12.10
2022-10-26T06:04:44.460Z,12.00
2022-10-26T06:07:12.192Z,12.00
2022-10-26T06:09:39.721Z,12.10
2022-10-26T06:12:07.606Z,11.90
2022-10-26T06:14:35.028Z,11.80
2022-10-26T06:17:07.783Z,11.80
2022-10-26T06:19:47.390Z,11.70
2022-10-26T06:22:21.408Z,11.80
2022-10-26T06:24:51.271Z,11.80
2022-10-26T06:27:19.588Z,11.80
2022-10-26T06:30:07.208Z,11.80
2022-10-26T06:32:34.227Z,11.90
2022-10-26T06:35:07.360Z,11.90
2022-10-26T06:37:35.535Z,11.90
2022-10-26T06:40:03.039Z,12.10
2022-10-26T06:42:31.409Z,12.20
2022-10-26T06:44:58.440Z,12.30
2022-10-26T06:47:38.995Z,12.20
2022-10-26T06:50:24.670Z,12.20
2022-10-26T06:52:55.842Z,12.10
2022-10-26T06:55:22.904Z,12.20
2022-10-26T06:57:50.193Z,12.10
2022-10-26T07:00:21.721Z,12.10
2022-10-26T07:02:50.131Z,12.10
2022-10-26T07:05:17.196Z,12.20
2022-10-26T07:07:45.681Z,12.40
2022-10-26T07:10:13.319Z,12.40
2022-10-26T07:12:40.270Z,12.50
2022-10-26T07:17:43.968Z,12.60
2022-10-26T07:20:11.156Z,12.50
2022-10-26T07:22:38.025Z,12.40
2022-10-26T07:25:05.324Z,12.50
2022-10-26T07:27:32.187Z,12.70
2022-10-26T07:29:59.140Z,12.80
2022-10-26T07:32:26.148Z,13.10
2022-10-26T07:34:53.091Z,13.00
2022-10-26T07:37:19.936Z,13.00
2022-10-26T07:39:46.755Z,12.90
2022-10-26T07:42:14.607Z,12.80
2022-10-26T07:44:41.452Z,12.90
2022-10-26T07:47:08.286Z,13.00
2022-10-26T07:49:35.624Z,13.10
2022-10-26T07:52:02.467Z,13.20
2022-10-26T07:54:29.267Z,13.10
2022-10-26T07:56:56.139Z,13.10
2022-10-26T07:59:22.974Z,13.40
2022-10-26T08:01:50.014Z,13.40
2022-10-26T08:04:16.959Z,13.40
2022-10-26T08:06:44.200Z,13.50
2022-10-26T08:09:11.042Z,13.80
2022-10-26T08:11:37.902Z,13.80
2022-10-26T08:14:05.904Z,14.20
2022-10-26T08:16:34.799Z,14.30
2022-10-26T08:19:01.686Z,14.40
2022-10-26T08:21:39.249Z,14.50
2022-10-26T08:24:07.141Z,14.40
2022-10-26T08:26:34.163Z,14.50
2022-10-26T08:29:00.955Z,14.60
2022-10-26T08:31:28.189Z,14.80
2022-10-26T08:33:55.059Z,14.80
2022-10-26T08:36:25.742Z,14.60
2022-10-26T08:38:52.775Z,14.70
2022-10-26T08:41:33.948Z,14.90
2022-10-26T08:44:03.652Z,15.10
2022-10-26T08:46:36.349Z,14.90
2022-10-26T08:49:15.927Z,14.80
2022-10-26T08:51:42.972Z,14.50
2022-10-26T08:54:16.680Z,14.60
2022-10-26T08:56:48.592Z,14.70
2022-10-26T08:59:25.435Z,14.90
2022-10-26T09:01:53.005Z,15.00
2022-10-26T09:04:22.915Z,15.00
2022-10-26T09:06:57.823Z,15.30
2022-10-26T09:09:30.983Z,15.40
2022-10-26T09:12:01.199Z,15.90
2022-10-26T09:14:31.090Z,16.40
2022-10-26T09:17:20.935Z,17.00
2022-10-26T09:19:57.087Z,17.20
2022-10-26T09:22:24.155Z,17.80
2022-10-26T09:24:55.691Z,18.30
2022-10-26T09:27:31.580Z,18.50
2022-10-26T09:30:00.993Z,18.80
2022-10-26T09:32:39.248Z,19.10
2022-10-26T09:35:13.356Z,19.10
2022-10-26T09:37:42.386Z,19.10
2022-10-26T09:40:16.243Z,19.00
2022-10-26T09:42:52.520Z,18.80
2022-10-26T09:45:31.634Z,19.60
2022-10-26T09:48:06.707Z,20.40
2022-10-26T09:50:35.906Z,21.80
2022-10-26T09:53:03.496Z,24.30
2022-10-26T09:55:31.637Z,26.40
2022-10-26T09:58:01.233Z,28.00
2022-10-26T10:00:28.866Z,27.80
2022-10-26T10:02:57.151Z,29.10
2022-10-26T10:05:39.104Z,28.60
2022-10-26T10:08:27.498Z,28.60
2022-10-26T10:10:54.643Z,29.30
2022-10-26T10:13:22.946Z,27.80
2022-10-26T10:15:54.570Z,28.80
2022-10-26T10:18:22.782Z,28.70
2022-10-26T10:20:54.084Z,28.60
2022-10-26T10:23:28.978Z,27.40
2022-10-26T10:26:07.205Z,28.10
2022-10-26T10:28:34.514Z,29.10
2022-10-26T10:31:03.498Z,29.90
2022-10-26T10:33:37.848Z,30.20
2022-10-26T10:36:07.874Z,28.60
2022-10-26T10:38:41.689Z,28.60
2022-10-26T10:41:16.163Z,28.20
2022-10-26T10:43:44.626Z,27.90
2022-10-26T10:46:17.648Z,28.10
2022-10-26T10:48:48.831Z,27.80
2022-10-26T10:51:19.601Z,27.30
2022-10-26T10:53:49.301Z,26.90
2022-10-26T10:56:37.913Z,26.40
2022-10-26T10:59:23.788Z,26.50
2022-10-26T11:02:14.717Z,27.60
2022-10-26T11:04:41.666Z,28.50
2022-10-26T11:07:10.106Z,28.90
2022-10-26T11:09:39.767Z,28.40
2022-10-26T11:12:10.211Z,29.60
2022-10-26T11:14:47.631Z,30.00
2022-10-26T11:17:24.298Z,29.10
2022-10-26T11:20:05.755Z,29.70
2022-10-26T11:22:38.414Z,29.50
2022-10-26T11:25:27.165Z,30.20
2022-10-26T11:28:17.613Z,29.70
2022-10-26T11:30:50.819Z,29.30
2022-10-26T11:33:25.276Z,30.40
2022-10-26T11:36:00.023Z,29.00
2022-10-26T11:38:39.257Z,28.20
2022-10-26T11:41:13.224Z,26.80
2022-10-26T11:43:47.873Z,25.90
2022-10-26T11:46:20.177Z,25.60
2022-10-26T11:49:00.169Z,25.70
2022-10-26T11:51:39.794Z,25.20
2022-10-26T11:54:36.277Z,25.80
2022-10-26T11:57:04.885Z,27.40
2022-10-26T11:59:35.662Z,28.80
2022-10-26T12:02:05.281Z,29.40
2022-10-26T12:04:33.560Z,29.10
2022-10-26T12:07:02.761Z,27.50
2022-10-26T12:09:35.741Z,26.60
2022-10-26T12:12:17.984Z,25.40
2022-10-26T12:14:44.847Z,25.20
2022-10-26T12:17:22.575Z,25.30
2022-10-26T12:19:54.122Z,25.60
2022-10-26T12:22:22.658Z,24.40
2022-10-26T12:25:17.975Z,23.50
2022-10-26T12:27:44.896Z,23.30
2022-10-26T12:30:18.267Z,24.00
2022-10-26T12:32:45.151Z,24.30
2022-10-26T12:35:30.897Z,24.80
2022-10-26T12:37:58.486Z,25.60
2022-10-26T12:40:28.422Z,25.90
2022-10-26T12:42:55.291Z,26.80
2022-10-26T12:45:22.203Z,26.60
2022-10-26T12:47:49.362Z,26.10
2022-10-26T12:50:34.312Z,25.10
2022-10-26T12:53:10.794Z,24.60
2022-10-26T12:55:37.740Z,24.70
2022-10-26T12:58:23.406Z,25.40
2022-10-26T13:01:16.636Z,26.70
2022-10-26T13:03:55.439Z,27.30
2022-10-26T13:06:22.347Z,29.60
2022-10-26T13:08:51.027Z,30.10
2022-10-26T13:11:30.198Z,30.70
2022-10-26T13:13:58.155Z,31.80
2022-10-26T13:16:26.336Z,31.00
2022-10-26T13:18:53.252Z,32.10
2022-10-26T13:21:22.406Z,31.90
2022-10-26T13:23:57.167Z,32.50
2022-10-26T13:26:25.328Z,33.20
2022-10-26T13:28:53.692Z,32.70
2022-10-26T13:31:31.898Z,31.80
2022-10-26T13:34:01.848Z,31.60
2022-10-26T13:36:40.956Z,31.30
2022-10-26T13:39:29.273Z,31.80
2022-10-26T13:41:58.543Z,30.00
2022-10-26T13:44:44.735Z,29.60
2022-10-26T13:47:15.222Z,29.00
2022-10-26T13:49:44.274Z,27.50
2022-10-26T13:52:21.491Z,26.70
2022-10-26T13:54:56.163Z,26.20
2022-10-26T13:57:27.919Z,25.80
2022-10-26T13:59:58.932Z,25.20
2022-10-26T14:02:41.458Z,24.80
2022-10-26T14:05:10.745Z,24.50
2022-10-26T14:10:28.245Z,24.00
2022-10-26T14:12:55.582Z,23.80
2022-10-26T14:15:27.849Z,23.70
2022-10-26T14:17:55.616Z,23.40
2022-10-26T14:20:24.033Z,23.30
2022-10-26T14:22:50.876Z,23.30
2022-10-26T14:25:35.863Z,23.20
2022-10-26T14:28:28.480Z,23.00
2022-10-26T14:31:10.324Z,22.90
2022-10-26T14:33:37.315Z,22.80
2022-10-26T14:36:04.422Z,22.70
2022-10-26T14:38:35.439Z,22.50
2022-10-26T14:41:02.502Z,22.40
2022-10-26T14:43:29.325Z,22.40
2022-10-26T14:45:57.409Z,22.50
2022-10-26T14:48:24.246Z,22.50
2022-10-26T14:50:58.692Z,22.50
2022-10-26T14:53:30.352Z,22.30
2022-10-26T14:55:57.273Z,22.20
2022-10-26T15:01:13.506Z,22.00
2022-10-26T15:03:41.077Z,21.90
2022-10-26T15:06:26.691Z,21.90
2022-10-26T15:08:58.054Z,21.90
2022-10-26T15:11:25.835Z,21.70
2022-10-26T15:13:53.885Z,21.50
2022-10-26T15:16:23.865Z,21.30
2022-10-26T15:19:09.258Z,21.10
2022-10-26T15:21:40.172Z,21.00
2022-10-26T15:24:28.047Z,20.90
2022-10-26T15:26:55.188Z,20.70
2022-10-26T15:29:57.686Z,20.60
2022-10-26T15:32:27.970Z,20.30
2022-10-26T15:35:15.502Z,20.20
2022-10-26T15:37:42.760Z,20.00
2022-10-26T15:40:09.987Z,19.90
2022-10-26T15:42:40.807Z,19.80
2022-10-26T15:45:16.038Z,19.70
2022-10-26T15:47:43.342Z,19.60
2022-10-26T15:50:14.473Z,19.50
2022-10-26T15:52:44.198Z,19.40
2022-10-26T15:55:13.945Z,19.30
2022-10-26T15:57:40.887Z,19.10
2022-10-26T16:00:08.300Z,18.90
2022-10-26T16:02:36.292Z,18.70
2022-10-26T16:05:03.659Z,18.50
2022-10-26T16:07:30.890Z,18.40
2022-10-26T16:09:58.927Z,18.00
2022-10-26T16:12:25.863Z,17.70
2022-10-26T16:15:05.047Z,17.50
2022-10-26T16:17:33.587Z,17.20
2022-10-26T16:20:06.622Z,17.00
2022-10-26T16:22:38.306Z,16.90
2022-10-26T16:25:05.730Z,16.80
2022-10-26T16:27:32.558Z,16.70
2022-10-26T16:29:59.430Z,16.50
2022-10-26T16:32:26.335Z,16.30
2022-10-26T16:34:53.174Z,16.00
2022-10-26T16:37:20.079Z,16.10
2022-10-26T16:39:46.933Z,15.90
2022-10-26T16:42:13.901Z,16.00
2022-10-26T16:44:40.776Z,15.70
2022-10-26T16:47:07.683Z,15.70
2022-10-26T16:49:34.526Z,15.80
2022-10-26T16:52:01.407Z,15.60
2022-10-26T16:54:31.038Z,15.50
2022-10-26T16:56:58.094Z,15.40
2022-10-26T16:59:25.050Z,15.30
2022-10-26T17:01:52.064Z,15.40
2022-10-26T17:04:18.979Z,15.30
2022-10-26T17:06:45.853Z,15.30
2022-10-26T17:09:12.693Z,15.20
2022-10-26T17:11:39.628Z,15.10
2022-10-26T17:14:06.603Z,15.00
2022-10-26T17:16:34.981Z,14.90
2022-10-26T17:19:01.867Z,14.70
2022-10-26T17:21:30.269Z,14.60
2022-10-26T17:23:57.124Z,14.50
2022-10-26T17:26:24.291Z,14.40
2022-10-26T17:28:52.339Z,14.50
2022-10-26T17:31:19.679Z,14.40
2022-10-26T17:33:50.299Z,14.30
2022-10-26T17:36:20.267Z,14.50
2022-10-26T17:38:51.278Z,14.50
2022-10-26T17:41:19.121Z,14.40
2022-10-26T17:43:46.570Z,14.10
2022-10-26T17:46:14.875Z,14.10
2022-10-26T17:48:41.937Z,14.20
2022-10-26T17:51:11.591Z,14.20
2022-10-26T17:53:38.867Z,14.10
2022-10-26T17:56:13.659Z,13.90
2022-10-26T17:58:40.570Z,13.80
2022-10-26T18:01:12.575Z,13.60
2022-10-26T18:03:40.550Z,13.80
2022-10-26T18:06:08.196Z,13.70
2022-10-26T18:08:36.016Z,13.50
2022-10-26T18:11:06.242Z,13.40
2022-10-26T18:13:34.238Z,13.40
2022-10-26T18:16:05.333Z,13.50
2022-10-26T18:18:32.780Z,13.60
2022-10-26T18:21:06.882Z,13.50
2022-10-26T18:23:33.778Z,13.50
2022-10-26T18:26:09.854Z,13.40
2022-10-26T18:28:40.298Z,13.30
2022-10-26T18:31:08.414Z,13.30
2022-10-26T18:33:36.861Z,13.30
2022-10-26T18:36:11.124Z,13.40
2022-10-26T18:38:40.011Z,13.50
2022-10-26T18:41:07.604Z,13.40
2022-10-26T18:43:34.524Z,13.30
2022-10-26T18:46:05.294Z,13.10
2022-10-26T18:48:32.558Z,13.00
2022-10-26T18:51:06.782Z,13.00
2022-10-26T18:53:35.048Z,13.00
2022-10-26T18:56:03.253Z,12.90
2022-10-26T18:58:37.803Z,13.00
2022-10-26T19:01:09.859Z,12.90
2022-10-26T19:03:37.225Z,12.80
2022-10-26T19:06:30.404Z,12.80
2022-10-26T19:08:57.790Z,12.80
2022-10-26T19:11:25.574Z,13.00
2022-10-26T19:13:54.009Z,12.90
2022-10-26T19:16:40.646Z,13.10
2022-10-26T19:19:10.684Z,13.20
2022-10-26T19:21:37.553Z,12.90
2022-10-26T19:24:04.704Z,12.90
2022-10-26T19:26:37.746Z,12.80
2022-10-26T19:29:07.618Z,12.80
2022-10-26T19:31:35.806Z,12.70
2022-10-26T19:34:03.161Z,12.80
2022-10-26T19:36:30.200Z,13.00
2022-10-26T19:38:57.306Z,12.80
2022-10-26T19:41:26.619Z,12.70
2022-10-26T19:43:57.045Z,12.70
2022-10-26T19:46:28.172Z,12.50
2022-10-26T19:48:56.111Z,12.40
2022-10-26T19:51:23.337Z,12.30
2022-10-26T19:53:50.510Z,12.20
2022-10-26T19:56:17.515Z,12.10
2022-10-26T19:58:44.817Z,12.10
2022-10-26T20:01:12.764Z,12.10
2022-10-26T20:03:39.745Z,12.00
2022-10-26T20:06:13.501Z,12.00
2022-10-26T20:08:41.240Z,12.00
2022-10-26T20:11:11.573Z,12.00
2022-10-26T20:13:41.787Z,12.10
2022-10-26T20:16:09.200Z,12.10
2022-10-26T20:18:36.181Z,12.00
2022-10-26T20:21:14.354Z,12.00
2022-10-26T20:23:41.394Z,12.00
2022-10-26T20:26:08.577Z,12.10
2022-10-26T20:28:35.575Z,12.10
2022-10-26T20:31:02.464Z,12.10
2022-10-26T20:33:29.611Z,12.00
2022-10-26T20:36:00.398Z,11.90
2022-10-26T20:38:27.608Z,12.00
2022-10-26T20:40:58.350Z,12.00
2022-10-26T20:43:26.586Z,11.90
2022-10-26T20:45:54.580Z,12.00
2022-10-26T20:48:22.190Z,11.90
2022-10-26T20:50:57.472Z,11.80
2022-10-26T20:53:33.601Z,12.00
2022-10-26T20:56:05.903Z,11.80
2022-10-26T20:58:39.062Z,11.70
2022-10-26T21:01:07.976Z,11.70
2022-10-26T21:03:34.991Z,11.80
2022-10-26T21:06:01.999Z,12.00
2022-10-26T21:08:28.812Z,12.10
2022-10-26T21:10:55.724Z,11.90
2022-10-26T21:13:22.809Z,11.70
2022-10-26T21:15:49.762Z,11.60
2022-10-26T21:18:16.700Z,11.50
2022-10-26T21:20:43.571Z,11.70
2022-10-26T21:23:10.395Z,11.60
2022-10-26T21:25:37.399Z,11.50
2022-10-26T21:28:04.686Z,11.40
2022-10-26T21:30:31.768Z,11.50
2022-10-26T21:32:58.729Z,11.30
2022-10-26T21:35:25.635Z,11.40
2022-10-26T21:37:52.707Z,11.40
2022-10-26T21:40:19.773Z,11.40
2022-10-26T21:42:50.976Z,11.30
2022-10-26T21:45:18.737Z,11.30
2022-10-26T21:47:45.695Z,11.30
2022-10-26T21:50:12.556Z,11.20
2022-10-26T21:52:39.375Z,11.10
2022-10-26T21:55:06.369Z,11.10
2022-10-26T21:57:33.697Z,11.00
2022-10-26T22:00:00.617Z,11.00
2022-10-26T22:02:27.444Z,11.10
2022-10-26T22:04:54.315Z,11.30
2022-10-26T22:07:21.257Z,11.20
2022-10-26T22:10:07.525Z,11.10
2022-10-26T22:12:35.091Z,11.20
2022-10-26T22:15:01.962Z,11.10
2022-10-26T22:17:28.787Z,11.00
2022-10-26T22:19:55.613Z,11.10
2022-10-26T22:22:22.544Z,11.10
2022-10-26T22:24:49.381Z,11.10
2022-10-26T22:27:16.255Z,11.10
2022-10-26T22:29:43.080Z,11.00
2022-10-26T22:32:09.888Z,11.00
2022-10-26T22:34:36.812Z,10.90
2022-10-26T22:37:03.660Z,10.90
2022-10-26T22:39:30.524Z,10.80
2022-10-26T22:41:57.308Z,10.70
2022-10-26T22:44:24.136Z,10.70
2022-10-26T22:46:50.915Z,10.70
2022-10-26T22:49:17.785Z,10.70
2022-10-26T22:51:44.696Z,10.60
2022-10-26T22:54:12.174Z,10.70
2022-10-26T22:56:39.313Z,10.70
2022-10-26T22:59:06.665Z,10.70
2022-10-26T23:01:36.208Z,10.60
2022-10-26T23:04:03.210Z,10.60
2022-10-26T23:06:30.758Z,10.70
2022-10-26T23:08:57.958Z,10.60
2022-10-26T23:11:26.925Z,10.50
2022-10-26T23:13:54.490Z,10.60
2022-10-26T23:16:21.547Z,10.80
2022-10-26T23:18:49.021Z,10.70
2022-10-26T23:21:16.948Z,10.60
2022-10-26T23:23:43.887Z,10.60
2022-10-26T23:26:12.279Z,10.70
2022-10-26T23:28:39.585Z,10.70
2022-10-26T23:31:06.834Z,10.70
2022-10-26T23:33:34.015Z,10.70
2022-10-26T23:36:01.631Z,10.70
2022-10-26T23:38:28.531Z,10.70
2022-10-26T23:40:59.635Z,10.70
2022-10-26T23:43:27.374Z,10.70
2022-10-26T23:45:54.668Z,10.60
2022-10-26T23:48:22.018Z,10.50
2022-10-26T23:50:49.765Z,10.50
2022-10-26T23:53:17.484Z,10.60
2022-10-26T23:55:45.002Z,10.80
2022-10-26T23:58:11.976Z,10.60
